Orbital elements of ARIANE 5 R/B
| Launched | 7 December 2006 |
| Flight ended | – |
| Launch site | Europe's Spaceport, Kourou, French Guiana |
| Owner | France |
| NORAD ID | 29646 |
| Date fetched |
Epoch osculation |
Inc. [°] |
Ecc. | RA asc node [hr] |
Arg Peri. [°] |
Mean anom [°] |
Mean motion [rev/day] |
Abs. mag |
| Date fetched |
Epoch osculation |
Inc. [°] |
Ecc. | RA asc node [hr] |
Arg Peri. [°] |
Mean anom [°] |
Mean motion [rev/day] |
Abs. mag |
| 2026 May 08 17:57 | 2026 May 05 05:24:28 | 2.5294 | 0.68992 | 10.2738 | 279.0246 | 14.7591 | 2.78734 | 3.243 |
| 2026 May 07 17:58 | 2026 May 05 05:24:28 | 2.5294 | 0.68992 | 10.2738 | 279.0246 | 14.7591 | 2.78734 | 3.243 |
| 2026 May 06 17:57 | 2026 May 05 05:24:28 | 2.5294 | 0.68992 | 10.2738 | 279.0246 | 14.7591 | 2.78734 | 3.243 |
| 2026 May 05 17:57 | 2026 May 05 05:24:28 | 2.5294 | 0.68992 | 10.2738 | 279.0246 | 14.7591 | 2.78734 | 3.243 |
| 2026 May 04 17:57 | 2026 Apr 30 04:53:10 | 2.5242 | 0.68989 | 10.4786 | 273.2833 | 14.7591 | 2.78734 | 3.243 |
| 2026 May 03 17:57 | 2026 Apr 30 04:53:10 | 2.5242 | 0.68989 | 10.4786 | 273.2833 | 14.7591 | 2.78734 | 3.243 |
| 2026 May 02 17:57 | 2026 Apr 30 04:53:10 | 2.5242 | 0.68989 | 10.4786 | 273.2833 | 14.7591 | 2.78734 | 3.243 |
| 2026 May 01 17:56 | 2026 Apr 30 04:53:10 | 2.5242 | 0.68989 | 10.4786 | 273.2833 | 14.7591 | 2.78734 | 3.243 |
| 2026 Apr 30 17:56 | 2026 Apr 30 04:53:10 | 2.5242 | 0.68989 | 10.4786 | 273.2833 | 14.7591 | 2.78734 | 3.243 |
| 2026 Apr 29 17:57 | 2026 Apr 24 11:06:01 | 2.5199 | 0.68985 | 10.7107 | 266.7611 | 14.7591 | 2.78734 | 3.243 |
| 2026 Apr 28 17:56 | 2026 Apr 24 11:06:01 | 2.5199 | 0.68985 | 10.7107 | 266.7611 | 14.7591 | 2.78734 | 3.243 |
| 2026 Apr 27 17:58 | 2026 Apr 24 11:06:01 | 2.5199 | 0.68985 | 10.7107 | 266.7611 | 14.7591 | 2.78734 | 3.243 |
| 2026 Apr 26 17:58 | 2026 Apr 24 11:06:01 | 2.5199 | 0.68985 | 10.7107 | 266.7611 | 14.7591 | 2.78734 | 3.243 |
| 2026 Apr 25 17:58 | 2026 Apr 24 11:06:01 | 2.5199 | 0.68985 | 10.7107 | 266.7611 | 14.7591 | 2.78734 | 3.243 |
| 2026 Apr 24 17:59 | 2026 Apr 24 11:06:01 | 2.5199 | 0.68985 | 10.7107 | 266.7611 | 14.7591 | 2.78734 | 3.243 |
| 2026 Apr 23 17:57 | 2026 Apr 19 01:53:44 | 2.5177 | 0.68982 | 10.9292 | 260.6270 | 14.7591 | 2.78734 | 3.243 |
| 2026 Apr 22 17:57 | 2026 Apr 19 01:53:44 | 2.5177 | 0.68982 | 10.9292 | 260.6270 | 14.7591 | 2.78734 | 3.243 |
| 2026 Apr 21 17:57 | 2026 Apr 19 01:53:44 | 2.5177 | 0.68982 | 10.9292 | 260.6270 | 14.7591 | 2.78734 | 3.243 |
| 2026 Apr 20 17:57 | 2026 Apr 19 01:53:44 | 2.5177 | 0.68982 | 10.9292 | 260.6270 | 14.7591 | 2.78734 | 3.243 |
| 2026 Apr 19 17:58 | 2026 Apr 19 01:53:44 | 2.5177 | 0.68982 | 10.9292 | 260.6270 | 14.7591 | 2.78734 | 3.243 |
| 2026 Apr 18 17:56 | 2026 Apr 12 23:25:44 | 2.5165 | 0.68971 | 11.1758 | 253.7000 | 14.7591 | 2.78734 | 3.243 |
| 2026 Apr 16 17:57 | 2026 Apr 12 23:25:44 | 2.5165 | 0.68971 | 11.1758 | 253.7000 | 14.7591 | 2.78734 | 3.243 |
| 2026 Apr 14 17:57 | 2026 Apr 12 23:25:44 | 2.5165 | 0.68971 | 11.1758 | 253.7000 | 14.7591 | 2.78734 | 3.243 |
| 2026 Apr 13 17:57 | 2026 Apr 12 23:25:44 | 2.5165 | 0.68971 | 11.1758 | 253.7000 | 14.7591 | 2.78734 | 3.243 |
| 2026 Apr 12 17:57 | 2026 Apr 08 07:24:42 | 2.5174 | 0.68966 | 11.3614 | 248.4558 | 14.7591 | 2.78734 | 3.243 |
| 2026 Apr 11 17:57 | 2026 Apr 08 07:24:42 | 2.5174 | 0.68966 | 11.3614 | 248.4558 | 14.7591 | 2.78734 | 3.243 |